Time;durP1;ratioP1;P1;durP2;ratioP2;P2;SDS_P1;SDS_P2;PMS_P1;PMS_P2;Temp;Humidity;BMP_temperature;BMP_pressure;BME280_temperature;BME280_humidity;BME280_pressure;Samples;Min_cycle;Max_cycle;Signal;HPM_P1;HPM_P2
2023/06/14 00:00:46;;;;;;;10.73;8.80;;;22.50;55.60;;;;;;5114691;28;20188;-71
2023/06/14 00:03:17;;;;;;;15.30;9.20;;;22.50;55.60;;;;;;5114351;28;20539;-72
2023/06/14 00:05:46;;;;;;;10.70;8.48;;;22.50;55.60;;;;;;5113339;28;20189;-71
2023/06/14 00:08:14;;;;;;;13.43;8.82;;;22.50;55.60;;;;;;5114203;28;20704;-72
2023/06/14 00:10:42;;;;;;;11.35;9.20;;;22.50;55.60;;;;;;5114260;28;20217;-72
2023/06/14 00:13:08;;;;;;;11.02;8.55;;;22.40;55.50;;;;;;5114411;28;20189;-72
2023/06/14 00:15:37;;;;;;;10.23;8.40;;;22.40;55.50;;;;;;5114976;28;20213;-69
2023/06/14 00:18:04;;;;;;;10.10;8.38;;;22.40;55.50;;;;;;5114294;28;20197;-72
2023/06/14 00:20:33;;;;;;;11.43;8.57;;;22.40;55.60;;;;;;5113342;28;20209;-71
2023/06/14 00:23:00;;;;;;;10.93;7.95;;;22.40;55.60;;;;;;5114195;28;20192;-76
2023/06/14 00:25:28;;;;;;;9.32;8.43;;;22.40;55.60;;;;;;5114760;28;20213;-71
2023/06/14 00:27:55;;;;;;;10.15;8.20;;;22.40;55.60;;;;;;5114051;28;20209;-71
2023/06/14 00:30:22;;;;;;;10.00;8.68;;;22.40;55.60;;;;;;5114070;28;20221;-71
2023/06/14 00:32:51;;;;;;;10.40;8.20;;;22.40;55.60;;;;;;5114068;28;20189;-71
2023/06/14 00:35:18;;;;;;;10.68;8.82;;;22.40;55.60;;;;;;5113953;28;20217;-71
2023/06/14 00:37:45;;;;;;;11.65;8.30;;;22.40;55.60;;;;;;5113621;28;20200;-71
2023/06/14 00:40:12;;;;;;;10.10;8.65;;;22.40;55.60;;;;;;5113965;28;20307;-71
2023/06/14 00:42:39;;;;;;;11.00;8.90;;;22.40;55.60;;;;;;5113793;28;20190;-71
2023/06/14 00:45:06;;;;;;;13.98;9.63;;;22.40;55.60;;;;;;5120106;27;20228;-71
2023/06/14 00:47:33;;;;;;;10.45;8.32;;;22.40;55.60;;;;;;5121143;27;20235;-71
2023/06/14 00:50:02;;;;;;;10.82;8.55;;;22.30;55.50;;;;;;5113668;28;20221;-71
2023/06/14 00:52:29;;;;;;;9.68;8.65;;;22.30;55.50;;;;;;5113431;28;20682;-71
2023/06/14 00:54:56;;;;;;;9.40;8.13;;;22.30;55.60;;;;;;5113695;28;20218;-71
2023/06/14 00:57:23;;;;;;;12.73;8.48;;;22.30;55.60;;;;;;5113545;28;20193;-71
2023/06/14 00:59:51;;;;;;;10.30;9.07;;;22.30;55.60;;;;;;5112996;28;20462;-71
2023/06/14 01:02:18;;;;;;;12.45;8.80;;;22.30;55.60;;;;;;5113504;28;20209;-71
2023/06/14 01:04:48;;;;;;;9.63;8.35;;;22.30;55.60;;;;;;5113516;28;20209;-71
2023/06/14 01:07:26;;;;;;;10.57;8.60;;;22.30;55.60;;;;;;5113395;28;20209;-71
2023/06/14 01:10:06;;;;;;;11.30;7.85;;;22.30;55.60;;;;;;5113394;28;20261;-71
2023/06/14 01:12:38;;;;;;;9.15;7.93;;;22.30;55.60;;;;;;5113021;28;20593;-71
2023/06/14 01:15:07;;;;;;;9.57;7.82;;;22.30;55.60;;;;;;5113139;28;20588;-71
2023/06/14 01:17:35;;;;;;;9.13;8.13;;;22.20;55.50;;;;;;5113031;28;20192;-71
2023/06/14 01:20:03;;;;;;;9.10;7.38;;;22.30;55.60;;;;;;5112898;28;20217;-71
2023/06/14 01:22:32;;;;;;;8.18;7.30;;;22.30;55.60;;;;;;5113201;28;20219;-71
2023/06/14 01:25:00;;;;;;;9.88;7.40;;;22.20;55.50;;;;;;5113271;28;20213;-71
2023/06/14 01:27:29;;;;;;;10.07;8.27;;;22.20;55.50;;;;;;5112747;28;20712;-71
2023/06/14 01:29:57;;;;;;;10.27;7.32;;;22.20;56.20;;;;;;5113097;28;20213;-71
2023/06/14 01:32:25;;;;;;;9.07;7.75;;;22.20;55.50;;;;;;5112701;28;20189;-71
2023/06/14 01:34:52;;;;;;;12.57;8.57;;;22.20;55.60;;;;;;5113037;28;20216;-71
2023/06/14 01:37:20;;;;;;;9.38;8.00;;;22.20;55.50;;;;;;5112669;28;20589;-71
2023/06/14 01:39:49;;;;;;;11.93;8.15;;;22.20;55.60;;;;;;5113059;28;20217;-71
2023/06/14 01:42:19;;;;;;;9.50;7.80;;;22.20;55.50;;;;;;5113277;28;20185;-71
2023/06/14 01:44:48;;;;;;;10.50;7.82;;;22.20;55.50;;;;;;5112569;28;20229;-71
2023/06/14 01:47:16;;;;;;;9.57;7.93;;;22.10;55.50;;;;;;5113091;28;20562;-71
2023/06/14 01:49:43;;;;;;;9.88;7.38;;;22.20;55.60;;;;;;5112750;28;20213;-71
2023/06/14 01:52:10;;;;;;;10.93;7.80;;;22.20;55.50;;;;;;5111266;28;20201;-71
2023/06/14 01:54:41;;;;;;;10.63;8.20;;;22.20;55.50;;;;;;5112486;28;20682;-71
2023/06/14 01:57:10;;;;;;;10.02;7.93;;;22.20;55.50;;;;;;5112230;28;20185;-71
2023/06/14 01:59:38;;;;;;;11.52;8.07;;;22.20;55.60;;;;;;5112840;28;20578;-71
2023/06/14 02:02:05;;;;;;;12.50;8.13;;;22.20;55.50;;;;;;5112476;28;20661;-71
2023/06/14 02:04:32;;;;;;;8.10;7.30;;;22.10;55.50;;;;;;5112815;28;20224;-71
2023/06/14 02:06:59;;;;;;;10.20;7.45;;;22.10;55.50;;;;;;5112971;28;20195;-71
2023/06/14 02:09:26;;;;;;;10.65;7.85;;;22.10;55.50;;;;;;5112640;28;20237;-71
2023/06/14 02:11:53;;;;;;;9.30;7.60;;;22.10;55.50;;;;;;5112294;28;20185;-75
2023/06/14 02:14:20;;;;;;;11.30;8.20;;;22.10;55.50;;;;;;5112152;28;20217;-71
2023/06/14 02:16:49;;;;;;;9.50;8.20;;;22.10;55.50;;;;;;5112317;28;20647;-71
2023/06/14 02:19:17;;;;;;;10.25;8.23;;;22.10;55.50;;;;;;5112349;28;20217;-71
2023/06/14 02:21:44;;;;;;;10.18;7.75;;;22.10;55.50;;;;;;5112599;28;20186;-71
2023/06/14 02:24:11;;;;;;;9.95;8.13;;;22.10;55.50;;;;;;5112326;28;20217;-71
2023/06/14 02:26:38;;;;;;;9.88;8.52;;;22.10;55.50;;;;;;5112375;28;20189;-72
2023/06/14 02:29:08;;;;;;;10.75;7.85;;;22.10;55.50;;;;;;5112363;28;20595;-71
2023/06/14 02:31:36;;;;;;;9.57;7.55;;;22.10;55.50;;;;;;5112500;28;20190;-71
2023/06/14 02:34:05;;;;;;;12.60;8.50;;;22.10;55.50;;;;;;5112135;28;20705;-71
2023/06/14 02:36:31;;;;;;;14.18;7.97;;;22.00;55.50;;;;;;5112474;28;20273;-75
2023/06/14 02:38:58;;;;;;;10.25;8.30;;;22.00;55.50;;;;;;5112091;28;20213;-71
2023/06/14 02:41:26;;;;;;;10.23;7.72;;;22.00;55.40;;;;;;5112067;28;20193;-71
2023/06/14 02:43:53;;;;;;;9.02;7.25;;;22.00;55.50;;;;;;5112743;28;20217;-71
2023/06/14 02:46:20;;;;;;;10.45;7.78;;;22.00;55.50;;;;;;5116203;28;20196;-72
2023/06/14 02:48:47;;;;;;;9.85;8.27;;;22.00;55.40;;;;;;5116094;28;20224;-72
2023/06/14 02:51:16;;;;;;;9.40;7.70;;;22.00;55.50;;;;;;5116124;28;20208;-71
2023/06/14 02:53:43;;;;;;;10.20;7.53;;;22.00;55.50;;;;;;5115806;28;20182;-74
2023/06/14 02:56:11;;;;;;;9.25;7.60;;;22.00;55.50;;;;;;5115879;28;20265;-71
2023/06/14 02:58:39;;;;;;;9.05;7.80;;;22.00;55.50;;;;;;5115777;28;20196;-71
2023/06/14 03:01:07;;;;;;;8.60;7.43;;;22.00;55.50;;;;;;5115933;28;20185;-71
2023/06/14 03:03:35;;;;;;;9.77;8.02;;;22.00;55.50;;;;;;5115828;28;20292;-76
2023/06/14 03:06:04;;;;;;;12.18;8.30;;;22.00;55.50;;;;;;5115568;28;20556;-71
2023/06/14 03:08:38;;;;;;;9.63;7.72;;;22.00;55.50;;;;;;5115367;28;20262;-71
2023/06/14 03:11:06;;;;;;;13.52;8.18;;;22.00;55.50;;;;;;5115662;28;20189;-71
2023/06/14 03:13:33;;;;;;;9.52;7.32;;;22.00;55.50;;;;;;5115643;28;20189;-71
2023/06/14 03:16:02;;;;;;;10.85;7.68;;;22.00;56.10;;;;;;5115595;28;20217;-71
2023/06/14 03:18:30;;;;;;;8.73;7.60;;;22.00;55.50;;;;;;5115451;28;20246;-71
2023/06/14 03:20:57;;;;;;;9.00;7.75;;;21.90;55.40;;;;;;5115718;28;20217;-71
2023/06/14 03:23:25;;;;;;;11.02;7.90;;;21.90;55.40;;;;;;5115539;27;20196;-70
2023/06/14 03:25:53;;;;;;;11.48;8.13;;;21.90;55.40;;;;;;5115388;28;20213;-71
2023/06/14 03:28:20;;;;;;;10.95;7.63;;;21.90;55.40;;;;;;5114869;28;20698;-71
2023/06/14 03:30:47;;;;;;;10.55;7.70;;;21.90;55.40;;;;;;5115136;28;20619;-70
2023/06/14 03:33:15;;;;;;;9.95;7.70;;;21.90;55.40;;;;;;5115282;28;20189;-75
2023/06/14 03:35:42;;;;;;;13.75;7.38;;;21.90;55.40;;;;;;5115455;28;20605;-71
2023/06/14 03:38:09;;;;;;;10.57;7.95;;;21.90;55.40;;;;;;5114863;28;20650;-71
2023/06/14 03:40:36;;;;;;;8.95;7.40;;;21.90;55.40;;;;;;5115353;28;20216;-72
2023/06/14 03:43:04;;;;;;;8.98;7.32;;;21.90;55.40;;;;;;5115079;28;20185;-71
2023/06/14 03:45:31;;;;;;;9.10;8.18;;;21.90;55.40;;;;;;5114805;28;20237;-74
2023/06/14 03:48:00;;;;;;;10.88;8.07;;;21.90;55.40;;;;;;5114534;28;20208;-71
2023/06/14 03:50:28;;;;;;;8.48;7.20;;;21.90;55.40;;;;;;5114668;28;20582;-71
2023/06/14 03:52:55;;;;;;;10.02;7.90;;;21.90;55.40;;;;;;5114657;28;20639;-71
2023/06/14 03:55:25;;;;;;;10.48;6.90;;;21.90;55.40;;;;;;5114632;28;20213;-71
2023/06/14 03:57:51;;;;;;;10.32;7.35;;;21.90;55.40;;;;;;5114740;28;20189;-71
2023/06/14 04:00:20;;;;;;;11.65;7.13;;;21.90;55.40;;;;;;5114826;28;20217;-72
2023/06/14 04:02:47;;;;;;;8.77;7.18;;;21.90;55.40;;;;;;5114706;28;20189;-71
2023/06/14 04:05:16;;;;;;;9.63;7.40;;;21.90;55.40;;;;;;5114819;28;20213;-74
2023/06/14 04:07:44;;;;;;;8.52;7.30;;;21.90;55.40;;;;;;5114541;28;20607;-71
2023/06/14 04:10:12;;;;;;;10.68;7.68;;;21.90;55.40;;;;;;5114616;28;20228;-72
2023/06/14 04:12:39;;;;;;;10.23;7.40;;;21.80;55.30;;;;;;5114047;28;20185;-75
2023/06/14 04:15:08;;;;;;;8.40;6.63;;;21.80;55.30;;;;;;5114562;28;20217;-71
2023/06/14 04:17:37;;;;;;;10.27;6.78;;;21.80;55.30;;;;;;5114469;27;20532;-71
2023/06/14 04:20:09;;;;;;;13.32;7.35;;;21.80;55.30;;;;;;5114107;28;20699;-72
2023/06/14 04:22:36;;;;;;;9.20;7.32;;;21.90;55.40;;;;;;5114023;28;20196;-71
2023/06/14 04:25:06;;;;;;;9.95;7.03;;;21.80;55.30;;;;;;5113826;28;20721;-70
2023/06/14 04:27:35;;;;;;;7.80;6.93;;;21.80;55.30;;;;;;5113900;28;20185;-71
2023/06/14 04:30:03;;;;;;;9.02;7.38;;;21.80;55.40;;;;;;5113822;28;20232;-72
2023/06/14 04:32:33;;;;;;;9.82;7.70;;;21.80;55.30;;;;;;5114116;28;20273;-70
2023/06/14 04:35:03;;;;;;;10.60;6.90;;;21.80;55.30;;;;;;5113917;28;20296;-71
2023/06/14 04:37:30;;;;;;;9.35;6.95;;;21.80;55.30;;;;;;5114005;28;20190;-71
2023/06/14 04:39:57;;;;;;;8.65;6.72;;;21.80;55.30;;;;;;5113791;28;20747;-71
2023/06/14 04:42:30;;;;;;;7.88;6.85;;;21.80;55.30;;;;;;5113880;28;20189;-70
2023/06/14 04:44:58;;;;;;;7.95;6.57;;;21.80;55.30;;;;;;5113559;28;20229;-71
2023/06/14 04:47:29;;;;;;;9.63;7.10;;;21.80;55.30;;;;;;5113742;28;20582;-75
2023/06/14 04:49:57;;;;;;;8.55;6.43;;;21.80;55.30;;;;;;5113765;28;20251;-71
2023/06/14 04:52:26;;;;;;;9.57;6.63;;;21.80;55.30;;;;;;5113165;28;20670;-71
2023/06/14 04:54:54;;;;;;;9.15;6.95;;;21.80;55.30;;;;;;5113346;28;20711;-74
2023/06/14 04:57:22;;;;;;;9.18;6.63;;;21.80;55.30;;;;;;5113346;28;20242;-71
2023/06/14 04:59:54;;;;;;;9.55;6.47;;;21.70;55.20;;;;;;5113441;28;20217;-71
2023/06/14 05:02:23;;;;;;;8.68;6.63;;;21.80;55.40;;;;;;5113642;27;20181;-75
2023/06/14 05:04:50;;;;;;;8.30;6.55;;;21.80;55.30;;;;;;5113235;28;20220;-71
2023/06/14 05:07:18;;;;;;;10.10;6.50;;;21.80;55.30;;;;;;5112903;28;20195;-71
2023/06/14 05:09:46;;;;;;;7.97;6.78;;;21.80;55.30;;;;;;5113401;28;20231;-72
2023/06/14 05:12:13;;;;;;;11.43;6.78;;;21.80;55.40;;;;;;5113472;28;20181;-71
2023/06/14 05:14:40;;;;;;;8.20;6.47;;;21.70;55.30;;;;;;5113086;28;20707;-71
2023/06/14 05:17:07;;;;;;;9.00;6.18;;;21.80;55.40;;;;;;5113292;28;20189;-71
2023/06/14 05:19:34;;;;;;;8.70;6.30;;;21.80;55.30;;;;;;5113190;28;20224;-71
2023/06/14 05:22:02;;;;;;;9.60;6.43;;;21.70;55.20;;;;;;5113256;28;20190;-71
2023/06/14 05:24:30;;;;;;;7.47;6.40;;;21.80;55.40;;;;;;5112917;28;20618;-75
2023/06/14 05:26:59;;;;;;;7.57;6.10;;;21.80;55.30;;;;;;5112857;28;20185;-72
2023/06/14 05:29:27;;;;;;;6.80;6.00;;;21.70;55.30;;;;;;5113002;28;20232;-72
2023/06/14 05:31:54;;;;;;;8.38;6.00;;;21.80;55.30;;;;;;5112832;28;20185;-75
2023/06/14 05:34:21;;;;;;;7.53;6.20;;;21.80;55.30;;;;;;5112759;28;20575;-71
2023/06/14 05:36:48;;;;;;;9.88;6.13;;;21.70;55.20;;;;;;5113075;28;20185;-72
2023/06/14 05:39:15;;;;;;;8.70;5.40;;;21.70;55.20;;;;;;5112609;28;20698;-71
2023/06/14 05:41:42;;;;;;;8.38;5.43;;;21.70;55.20;;;;;;5113089;28;20188;-71
2023/06/14 05:44:10;;;;;;;5.85;5.10;;;21.80;55.20;;;;;;5112595;28;20228;-75
2023/06/14 05:46:39;;;;;;;7.95;5.63;;;21.80;55.20;;;;;;5112825;28;20559;-71
2023/06/14 05:49:06;;;;;;;7.20;5.82;;;21.80;55.20;;;;;;5112901;28;20221;-71
2023/06/14 05:51:33;;;;;;;8.18;5.15;;;21.80;55.20;;;;;;5112597;28;20242;-72
2023/06/14 05:54:00;;;;;;;8.50;5.88;;;21.80;55.20;;;;;;5112773;28;20185;-73
2023/06/14 05:56:28;;;;;;;7.35;5.03;;;21.70;55.10;;;;;;5112899;28;20189;-71
2023/06/14 05:58:54;;;;;;;7.18;5.57;;;21.80;55.10;;;;;;5112650;28;20196;-74
2023/06/14 06:01:25;;;;;;;7.18;5.43;;;21.80;55.00;;;;;;5112877;28;20185;-76
2023/06/14 06:03:52;;;;;;;7.03;5.38;;;21.70;55.00;;;;;;5112139;28;20193;-76
2023/06/14 06:06:19;;;;;;;8.55;4.72;;;21.80;55.00;;;;;;5112449;28;20643;-71
2023/06/14 06:08:46;;;;;;;6.85;5.13;;;21.80;55.00;;;;;;5119559;28;20192;-76
2023/06/14 06:11:13;;;;;;;7.13;5.38;;;21.80;55.00;;;;;;5131525;27;20216;-75
2023/06/14 06:13:40;;;;;;;6.28;5.38;;;21.90;55.00;;;;;;5131610;28;20275;-76
2023/06/14 06:16:07;;;;;;;11.05;6.07;;;21.90;55.00;;;;;;5132749;27;20216;-76
2023/06/14 06:18:36;;;;;;;7.72;5.15;;;22.00;55.00;;;;;;5134557;27;20185;-76
2023/06/14 06:21:04;;;;;;;6.55;5.05;;;22.00;54.90;;;;;;5136999;27;20208;-76
2023/06/14 06:23:31;;;;;;;5.82;5.22;;;22.10;54.90;;;;;;5137129;27;20185;-75
2023/06/14 06:25:58;;;;;;;8.57;5.25;;;22.20;54.90;;;;;;5136852;27;20324;-76
2023/06/14 06:28:25;;;;;;;9.05;5.28;;;22.20;54.70;;;;;;5133271;27;20193;-76
2023/06/14 06:30:53;;;;;;;11.30;5.25;;;22.20;54.60;;;;;;5134495;27;20234;-78
2023/06/14 06:33:20;;;;;;;14.43;5.03;;;22.30;54.60;;;;;;5134238;27;20193;-76
2023/06/14 06:35:48;;;;;;;6.70;4.78;;;22.30;54.40;;;;;;5134816;27;20239;-76
2023/06/14 06:38:18;;;;;;;7.13;4.88;;;22.40;54.40;;;;;;5132165;27;20180;-77
2023/06/14 06:40:45;;;;;;;6.88;5.07;;;22.40;54.30;;;;;;5132980;27;20252;-76
2023/06/14 06:43:13;;;;;;;8.63;5.25;;;22.50;54.40;;;;;;5133531;27;20283;-76
2023/06/14 06:45:40;;;;;;;9.05;5.50;;;22.50;54.40;;;;;;5132774;27;20224;-76
2023/06/14 06:48:07;;;;;;;10.02;4.88;;;22.50;54.10;;;;;;5133058;27;20193;-75
2023/06/14 06:50:34;;;;;;;6.22;4.97;;;22.50;54.00;;;;;;5132612;27;20603;-76
2023/06/14 06:53:03;;;;;;;9.65;5.53;;;22.60;54.00;;;;;;5133265;27;20195;-76
2023/06/14 06:55:30;;;;;;;11.27;5.05;;;22.60;53.90;;;;;;5132652;27;20295;-79
2023/06/14 06:57:57;;;;;;;6.13;4.65;;;22.70;53.90;;;;;;5132668;27;20279;-76
2023/06/14 07:00:25;;;;;;;6.82;4.25;;;22.70;54.00;;;;;;5132945;27;20208;-75
2023/06/14 07:02:54;;;;;;;8.15;5.10;;;22.70;53.80;;;;;;5133072;27;20313;-75
2023/06/14 07:05:21;;;;;;;6.80;4.80;;;22.70;53.70;;;;;;5132765;27;20308;-75
2023/06/14 07:07:49;;;;;;;6.18;4.60;;;22.70;53.50;;;;;;5132899;27;20188;-76
2023/06/14 07:10:18;;;;;;;10.48;5.10;;;22.80;53.80;;;;;;5132558;27;20220;-76
2023/06/14 07:12:45;;;;;;;8.48;4.80;;;22.80;53.90;;;;;;5132364;27;20211;-78
2023/06/14 07:15:13;;;;;;;9.02;4.82;;;22.80;53.90;;;;;;5132672;27;20266;-78
2023/06/14 07:17:40;;;;;;;10.57;4.78;;;22.90;53.90;;;;;;5132452;27;20275;-77
2023/06/14 07:20:13;;;;;;;7.75;4.75;;;22.90;53.90;;;;;;5125832;27;20315;-76
2023/06/14 07:22:44;;;;;;;7.07;5.05;;;22.90;53.90;;;;;;5093782;27;20192;-76
2023/06/14 07:25:24;;;;;;;8.85;4.93;;;22.90;53.80;;;;;;5098659;27;20574;-76
2023/06/14 07:27:55;;;;;;;8.98;5.30;;;23.00;53.80;;;;;;5084498;27;20886;-77
2023/06/14 07:30:30;;;;;;;5.25;4.75;;;23.00;53.50;;;;;;5124202;27;20250;-76
2023/06/14 07:32:58;;;;;;;7.50;4.53;;;23.00;53.50;;;;;;5120833;27;20214;-76
2023/06/14 07:35:25;;;;;;;7.15;4.35;;;23.00;53.40;;;;;;5131810;27;20650;-77
2023/06/14 07:37:52;;;;;;;6.40;4.35;;;23.00;53.50;;;;;;5132773;27;20267;-76
2023/06/14 07:40:22;;;;;;;5.82;4.38;;;23.00;53.40;;;;;;5132070;27;20215;-77
2023/06/14 07:42:50;;;;;;;10.48;4.75;;;23.00;53.40;;;;;;5131023;27;20706;-76
2023/06/14 07:45:18;;;;;;;11.45;4.97;;;23.00;53.40;;;;;;5132037;27;20284;-77
2023/06/14 07:47:45;;;;;;;9.13;4.90;;;23.10;53.50;;;;;;5133157;27;20234;-77
2023/06/14 07:50:14;;;;;;;7.63;4.00;;;23.00;53.40;;;;;;5132284;27;20228;-76
2023/06/14 07:52:41;;;;;;;7.95;4.60;;;23.10;53.50;;;;;;5079155;27;20196;-76
2023/06/14 07:55:09;;;;;;;9.23;4.38;;;23.10;53.50;;;;;;5131439;27;20261;-74
2023/06/14 07:57:37;;;;;;;8.25;4.20;;;23.10;53.50;;;;;;5130647;27;20195;-76
2023/06/14 08:00:07;;;;;;;8.20;4.40;;;23.10;53.50;;;;;;5131858;27;20246;-77
2023/06/14 08:02:34;;;;;;;7.93;4.38;;;23.10;53.50;;;;;;5132091;27;20244;-77
2023/06/14 08:05:01;;;;;;;9.38;4.55;;;23.10;53.50;;;;;;5132024;27;20758;-77
2023/06/14 08:07:29;;;;;;;7.47;4.65;;;23.10;53.50;;;;;;5132065;27;20195;-76
2023/06/14 08:09:59;;;;;;;8.48;4.93;;;23.10;53.50;;;;;;5122032;27;20224;-76
2023/06/14 08:12:28;;;;;;;7.82;4.32;;;23.10;53.50;;;;;;5123835;27;20233;-73
2023/06/14 08:15:01;;;;;;;7.72;4.63;;;23.20;53.50;;;;;;5129189;27;20219;-73
2023/06/14 08:17:31;;;;;;;8.02;4.97;;;23.20;53.50;;;;;;5127931;27;20224;-76
2023/06/14 08:20:00;;;;;;;6.63;4.63;;;23.20;53.40;;;;;;5129255;27;20244;-75
2023/06/14 08:22:31;;;;;;;7.45;4.82;;;23.20;53.40;;;;;;5127577;27;20563;-76
2023/06/14 08:24:58;;;;;;;10.05;5.10;;;23.20;53.40;;;;;;5128627;27;20368;-76
2023/06/14 08:27:25;;;;;;;7.30;4.72;;;23.20;53.40;;;;;;5125876;27;20191;-75
2023/06/14 08:29:52;;;;;;;8.80;4.75;;;23.20;53.40;;;;;;5113570;27;20238;-76
2023/06/14 08:32:21;;;;;;;7.30;4.90;;;23.20;53.30;;;;;;5128469;27;20364;-75
2023/06/14 08:34:48;;;;;;;10.02;4.60;;;23.20;53.50;;;;;;5125619;27;20303;-74
2023/06/14 08:37:15;;;;;;;11.68;4.57;;;23.20;53.50;;;;;;5127942;27;20280;-74
2023/06/14 08:39:43;;;;;;;10.00;5.18;;;23.20;53.40;;;;;;5125536;27;20275;-74
2023/06/14 08:42:11;;;;;;;9.20;4.72;;;23.30;53.50;;;;;;5124258;27;20991;-75
2023/06/14 08:44:38;;;;;;;9.75;4.63;;;23.30;53.40;;;;;;5126121;27;20216;-75
2023/06/14 08:47:08;;;;;;;10.38;4.80;;;23.30;53.90;;;;;;5128158;27;20989;-76
2023/06/14 08:49:39;;;;;;;6.63;4.78;;;23.30;53.50;;;;;;5128611;27;20177;-76
2023/06/14 08:52:10;;;;;;;7.57;4.78;;;23.30;53.40;;;;;;5125486;27;20192;-76
2023/06/14 08:54:43;;;;;;;8.65;4.70;;;23.30;53.30;;;;;;5127746;27;20184;-76
2023/06/14 08:57:12;;;;;;;8.80;5.15;;;23.30;53.30;;;;;;5125366;27;20185;-76
2023/06/14 08:59:46;;;;;;;9.00;4.85;;;23.30;53.10;;;;;;5128506;27;20212;-76
2023/06/14 09:02:14;;;;;;;10.10;4.75;;;23.30;53.10;;;;;;5125830;27;20245;-75
2023/06/14 09:04:44;;;;;;;10.65;5.00;;;23.30;53.20;;;;;;5127574;27;20184;-76
2023/06/14 09:07:12;;;;;;;7.35;4.50;;;23.30;53.10;;;;;;5125247;27;20650;-75
2023/06/14 09:09:41;;;;;;;7.30;4.38;;;23.30;53.10;;;;;;5126032;27;20918;-76
2023/06/14 09:12:12;;;;;;;7.05;4.40;;;23.30;53.10;;;;;;5123783;27;20200;-76
2023/06/14 09:14:42;;;;;;;6.65;4.47;;;23.30;53.80;;;;;;5125581;27;20220;-76
2023/06/14 09:17:09;;;;;;;8.02;4.63;;;23.30;53.20;;;;;;5126311;27;20272;-76
2023/06/14 09:19:37;;;;;;;8.73;5.00;;;23.30;53.10;;;;;;5126514;27;20183;-76
2023/06/14 09:22:06;;;;;;;6.88;5.00;;;23.30;53.10;;;;;;5127055;27;20192;-75
2023/06/14 09:24:33;;;;;;;8.05;4.85;;;23.30;53.20;;;;;;5124173;27;20812;-76
2023/06/14 09:27:01;;;;;;;7.10;5.10;;;23.30;53.20;;;;;;5089539;27;20219;-76
2023/06/14 09:29:28;;;;;;;9.38;4.93;;;23.30;53.20;;;;;;5127941;27;20572;-76
2023/06/14 09:31:55;;;;;;;6.72;4.78;;;23.30;53.10;;;;;;5126437;27;20622;-76
2023/06/14 09:34:24;;;;;;;8.75;4.80;;;23.30;52.90;;;;;;5127515;27;20185;-76
2023/06/14 09:36:52;;;;;;;11.13;5.22;;;23.30;52.80;;;;;;5125816;27;20351;-76
2023/06/14 09:39:21;;;;;;;7.40;4.40;;;23.30;53.00;;;;;;5124498;27;20196;-77
2023/06/14 09:41:48;;;;;;;5.65;4.35;;;23.30;53.00;;;;;;5121624;27;20216;-76
2023/06/14 09:44:15;;;;;;;9.30;5.00;;;23.30;53.00;;;;;;5125864;27;20311;-76
2023/06/14 09:46:42;;;;;;;13.48;5.38;;;23.30;53.10;;;;;;5124950;27;20791;-75
2023/06/14 09:49:10;;;;;;;7.68;4.85;;;23.40;53.00;;;;;;5119777;28;20196;-76
2023/06/14 09:51:44;;;;;;;7.22;5.00;;;23.40;53.10;;;;;;5127304;27;20315;-76
2023/06/14 09:54:16;;;;;;;11.40;4.60;;;23.40;53.10;;;;;;5119412;28;20196;-77
2023/06/14 09:56:47;;;;;;;8.07;4.50;;;23.40;53.20;;;;;;5125456;27;20298;-75
2023/06/14 09:59:17;;;;;;;6.43;4.65;;;23.40;53.10;;;;;;5125198;28;20191;-77
2023/06/14 10:01:45;;;;;;;12.35;4.88;;;23.40;53.10;;;;;;5124634;28;20216;-76
2023/06/14 10:04:16;;;;;;;5.97;4.47;;;23.40;53.20;;;;;;5119018;27;20193;-75
2023/06/14 10:06:46;;;;;;;8.82;4.63;;;23.40;53.10;;;;;;5120740;28;20223;-75
2023/06/14 10:09:14;;;;;;;8.25;4.85;;;23.40;52.90;;;;;;5125529;27;20200;-76
2023/06/14 10:11:43;;;;;;;7.43;4.50;;;23.40;52.90;;;;;;5119951;27;20319;-75
2023/06/14 10:14:14;;;;;;;6.03;4.38;;;23.30;52.70;;;;;;5125720;27;20193;-76
2023/06/14 10:16:48;;;;;;;10.40;4.43;;;23.30;52.70;;;;;;5126648;28;20220;-75
2023/06/14 10:19:20;;;;;;;6.13;4.85;;;23.30;52.60;;;;;;5125727;27;20192;-75
2023/06/14 10:21:56;;;;;;;6.60;4.47;;;23.30;52.60;;;;;;5127109;27;20319;-75
2023/06/14 10:24:36;;;;;;;6.05;4.13;;;23.30;52.50;;;;;;5124954;27;20265;-74
2023/06/14 10:27:03;;;;;;;8.43;4.60;;;23.30;52.50;;;;;;5119511;28;20240;-75
2023/06/14 10:29:33;;;;;;;6.93;4.35;;;23.30;52.60;;;;;;5127315;27;20862;-76
2023/06/14 10:32:01;;;;;;;7.35;4.75;;;23.30;52.50;;;;;;5123212;27;20275;-74
2023/06/14 10:34:29;;;;;;;9.95;5.22;;;23.30;52.50;;;;;;5125094;28;20287;-75
2023/06/14 10:37:05;;;;;;;10.25;4.68;;;23.30;52.50;;;;;;5123256;28;20220;-75
2023/06/14 10:39:33;;;;;;;6.85;4.68;;;23.30;52.40;;;;;;5119873;28;20196;-76
2023/06/14 10:42:04;;;;;;;7.88;4.70;;;23.20;52.30;;;;;;5122735;27;20213;-76
2023/06/14 10:44:52;;;;;;;6.18;4.25;;;23.30;52.50;;;;;;5118486;28;20763;-76
2023/06/14 10:47:29;;;;;;;7.10;4.53;;;23.30;52.40;;;;;;5119546;28;20279;-74
2023/06/14 10:49:58;;;;;;;8.95;4.50;;;23.20;52.40;;;;;;5122558;28;20230;-75
2023/06/14 10:52:27;;;;;;;6.50;4.32;;;23.20;52.40;;;;;;5123610;28;21006;-75
2023/06/14 10:55:05;;;;;;;6.32;4.55;;;23.20;52.40;;;;;;5123866;27;20193;-75
2023/06/14 10:57:33;;;;;;;10.05;4.80;;;23.20;52.40;;;;;;5124909;27;20184;-75
2023/06/14 11:00:12;;;;;;;6.45;4.35;;;23.20;52.30;;;;;;5130699;27;20862;-75
2023/06/14 11:03:25;;;;;;;7.72;4.43;;;23.20;52.30;;;;;;5125606;28;20184;-75
2023/06/14 11:05:53;;;;;;;6.50;3.95;;;23.20;52.30;;;;;;5090063;27;20216;-75
2023/06/14 11:08:52;;;;;;;7.50;4.30;;;23.20;52.40;;;;;;5127522;27;20215;-75
2023/06/14 11:11:22;;;;;;;10.18;5.00;;;23.20;52.40;;;;;;5123389;27;20315;-75
2023/06/14 11:13:49;;;;;;;6.93;4.10;;;23.20;52.40;;;;;;5129027;27;21060;-76
2023/06/14 11:16:19;;;;;;;7.60;3.65;;;23.20;52.50;;;;;;5119622;27;20231;-76
2023/06/14 11:18:46;;;;;;;5.47;3.95;;;23.20;52.50;;;;;;5129679;27;20943;-76
2023/06/14 11:21:17;;;;;;;8.52;4.50;;;23.10;52.40;;;;;;5128749;27;21063;-75
2023/06/14 11:23:50;;;;;;;6.95;4.53;;;23.20;52.40;;;;;;5128975;27;20192;-75
2023/06/14 11:26:26;;;;;;;6.03;3.92;;;23.20;52.60;;;;;;5126024;27;20221;-75
2023/06/14 11:28:57;;;;;;;6.90;4.38;;;23.20;52.70;;;;;;5129664;27;20253;-73
2023/06/14 11:31:26;;;;;;;24.90;4.32;;;23.20;52.70;;;;;;5127857;27;20247;-75
2023/06/14 11:33:55;;;;;;;6.38;3.60;;;23.20;52.70;;;;;;5129209;27;20646;-74
2023/06/14 11:36:22;;;;;;;10.02;4.10;;;23.10;52.60;;;;;;5129294;27;20709;-76
2023/06/14 11:38:50;;;;;;;10.50;3.92;;;23.20;52.80;;;;;;5129322;27;20237;-75
2023/06/14 11:41:17;;;;;;;8.50;4.03;;;23.20;52.90;;;;;;5125571;27;20784;-76
2023/06/14 11:43:44;;;;;;;12.80;4.10;;;23.20;53.20;;;;;;5129177;27;20664;-76
2023/06/14 11:46:15;;;;;;;9.32;3.70;;;23.30;53.30;;;;;;5127499;27;20227;-76
2023/06/14 11:48:45;;;;;;;7.13;3.38;;;23.30;53.40;;;;;;5125617;27;20192;-76
2023/06/14 11:51:12;;;;;;;6.55;4.10;;;23.30;53.50;;;;;;5129122;27;20224;-76
2023/06/14 11:53:39;;;;;;;5.65;4.10;;;23.30;53.60;;;;;;5128357;27;20188;-74
2023/06/14 11:56:07;;;;;;;12.98;3.78;;;23.30;53.70;;;;;;5124059;27;20296;-75
2023/06/14 11:58:34;;;;;;;9.65;3.72;;;23.30;53.70;;;;;;5128957;27;20196;-77
2023/06/14 12:01:01;;;;;;;6.95;3.97;;;23.40;53.70;;;;;;5128834;27;20220;-77
2023/06/14 12:03:31;;;;;;;7.32;3.67;;;23.40;53.80;;;;;;5123478;27;20232;-73
2023/06/14 12:06:11;;;;;;;11.90;4.05;;;23.40;53.70;;;;;;5110313;27;20351;-78
2023/06/14 12:12:04;;;;;;;9.55;4.55;;;23.40;54.00;;;;;;5107767;27;20324;-76
2023/06/14 12:14:32;;;;;;;11.13;4.05;;;23.40;54.70;;;;;;5125365;27;20203;-76
2023/06/14 12:17:06;;;;;;;7.97;3.88;;;23.40;54.10;;;;;;5123464;27;20999;-81
2023/06/14 12:19:34;;;;;;;7.93;4.40;;;23.40;54.10;;;;;;5124424;27;20214;-81
2023/06/14 12:22:10;;;;;;;9.05;4.28;;;23.40;54.10;;;;;;5119216;27;20220;-76
2023/06/14 12:24:37;;;;;;;8.05;3.67;;;23.40;54.10;;;;;;5123698;27;20194;-80
2023/06/14 12:27:05;;;;;;;8.05;3.65;;;23.50;54.20;;;;;;5122968;27;20214;-78
2023/06/14 12:29:33;;;;;;;7.95;3.83;;;23.50;54.30;;;;;;5124980;27;20870;-75
2023/06/14 12:32:03;;;;;;;11.90;4.25;;;23.40;54.20;;;;;;5122633;27;20234;-73
2023/06/14 12:34:31;;;;;;;8.45;3.90;;;23.50;54.30;;;;;;5038688;28;20203;-76
2023/06/14 12:36:59;;;;;;;10.75;4.13;;;23.50;54.30;;;;;;5039758;28;20323;-83
2023/06/14 12:39:29;;;;;;;9.75;3.88;;;23.50;54.30;;;;;;5009951;28;20772;-78
2023/06/14 12:41:56;;;;;;;10.73;3.92;;;23.50;54.40;;;;;;5034467;28;20231;-80
2023/06/14 12:44:23;;;;;;;11.57;4.35;;;23.50;54.50;;;;;;5042860;28;20223;-79
2023/06/14 12:46:53;;;;;;;7.78;3.90;;;23.50;54.50;;;;;;5048310;28;20721;-80
2023/06/14 12:49:20;;;;;;;8.40;3.58;;;23.50;54.50;;;;;;5040388;28;20199;-82
2023/06/14 12:51:48;;;;;;;10.93;4.10;;;23.60;54.70;;;;;;5036342;28;20242;-79
2023/06/14 12:54:15;;;;;;;9.98;3.80;;;23.60;54.70;;;;;;5039571;28;20336;-84